Airfield :
LOGIN :

Register | Disclaimer

   EN    FR    IT 

 










Legend :    VFR   Marginal VFR   IFR   Intensive IFR   Very Intensive IFR
Visi :
Ceiling :
>= 8 km
>= 3000ft
5 to 8 km
1000 to 3000 ft
1500m to 5 km
500 to 1000 ft
800 to 1500m
200 to 500 ft
< 800m
< 200 ft
Symbols :   Thunderstorms  Fog  Heavy snow  Heavy precipitations  Wind > 20 kt
SIGMETs :     Misc.  Thunderstorms  Icing  Turbulence  Mountain Waves  Volcanic Ashes







- Airport Elevation : 681 ft
- IATA code : LBA
- Download approach charts


EGNM - Leeds Bradford

CURRENT METAR :
  • 230620Z 24005KT 220V280 9999 BKN009 16/15 Q1023

EXPIRED METARs :
  • 230550Z 23004KT 190V270 9999 BKN009 16/14 Q1023
  • 230520Z 24004KT 200V280 9999 BKN008 16/14 Q1022
  • 230450Z 24006KT 9999 BKN008 16/14 Q1022
  • 230420Z 24008KT 210V270 9999 FEW015 15/14 Q1022
  • 230350Z 25009KT CAVOK 16/14 Q1022

TAF TAF EGNM
Valid from the 23 at 06:00 until the 24 at 06:00 UTC


230456Z 2306/2406 22010KT 9999 FEW015
TEMPO 2306/2310 BKN007
PROB30
TEMPO 2306/2308 8000 BKN004
BECMG 2316/2319 16006KT
BECMG 2403/2406 7000
PROB30 2404/2406 3000 BR MIFG
ATIS : +44 113 250 9696 (x2489)
No reported NOTAMs for that airfield.



MET'MAP, your aeronautical weather chart ! - Copyright ORBIFLY December 2007 - Disclaimer

ORBIFLY MET'MAP TEAM :

Programming & Development : Alexandra Zaïnal
Concept & Development : Baudouin d'Aumeries
Co-Development & Prog : Marc-Olivier Méhu
Technical & hardware support : Manuel Goepfert

Contact : metmap@orbifly.com




SOURCES & CREDITS :

   NOAA